createdAt,value
2022-08-16T00:00:03.568Z,87.10
2022-08-16T00:00:55.526Z,86.49
2022-08-16T00:01:54.539Z,86.19
2022-08-16T00:02:54.495Z,86.59
2022-08-16T00:03:54.488Z,86.96
2022-08-16T00:04:54.483Z,87.77
2022-08-16T00:05:57.861Z,87.05
2022-08-16T00:06:54.463Z,86.55
2022-08-16T00:07:57.021Z,86.45
2022-08-16T00:08:54.434Z,87.26
2022-08-16T00:09:54.423Z,87.87
2022-08-16T00:10:54.413Z,87.05
2022-08-16T00:11:55.403Z,87.46
2022-08-16T00:12:54.636Z,87.05
2022-08-16T00:13:55.631Z,86.29
2022-08-16T00:14:56.755Z,86.25
2022-08-16T00:15:54.455Z,85.13
2022-08-16T00:17:00.657Z,85.13
2022-08-16T00:17:57.199Z,85.13
2022-08-16T00:18:54.329Z,84.77
2022-08-16T00:19:55.029Z,85.03
2022-08-16T00:20:54.321Z,84.06
2022-08-16T00:21:56.071Z,84.61
2022-08-16T00:22:54.279Z,85.42
2022-08-16T00:23:54.273Z,85.46
2022-08-16T00:24:54.620Z,85.36
2022-08-16T00:26:35.308Z,85.62
2022-08-16T00:26:55.278Z,86.43
2022-08-16T00:27:54.218Z,86.53
2022-08-16T00:28:54.591Z,86.22
2022-08-16T00:30:08.410Z,86.63
2022-08-16T00:30:55.233Z,87.34
2022-08-16T00:32:01.229Z,87.65
2022-08-16T00:32:57.042Z,87.89
2022-08-16T00:33:54.202Z,87.24
2022-08-16T00:34:54.328Z,87.45
2022-08-16T00:35:54.182Z,87.24
2022-08-16T00:36:55.720Z,87.54
2022-08-16T00:37:58.690Z,87.74
2022-08-16T00:38:56.196Z,89.43
2022-08-16T00:39:57.261Z,87.54
2022-08-16T00:40:54.169Z,87.14
2022-08-16T00:41:54.120Z,87.54
2022-08-16T00:42:54.807Z,87.99
2022-08-16T00:43:54.123Z,88.09
2022-08-16T00:44:54.107Z,87.24
2022-08-16T00:45:57.852Z,86.22
2022-08-16T00:47:02.419Z,86.22
2022-08-16T00:47:55.078Z,86.43
2022-08-16T00:48:54.033Z,87.24
2022-08-16T00:49:56.648Z,85.82
2022-08-16T00:50:55.500Z,86.02
2022-08-16T00:51:55.635Z,87.24
2022-08-16T00:52:54.311Z,87.30
2022-08-16T00:53:54.001Z,86.63
2022-08-16T00:54:53.981Z,86.39
2022-08-16T00:55:53.985Z,86.63
2022-08-16T00:56:58.592Z,86.29
2022-08-16T00:57:59.545Z,86.73
2022-08-16T00:58:54.954Z,85.72
2022-08-16T00:59:58.764Z,85.66
2022-08-16T01:00:54.982Z,86.98
2022-08-16T01:01:53.935Z,86.55
2022-08-16T01:02:53.918Z,87.87
2022-08-16T01:03:53.893Z,88.38
2022-08-16T01:05:09.045Z,88.07
2022-08-16T01:05:54.906Z,87.46
2022-08-16T01:07:01.760Z,87.46
2022-08-16T01:07:54.857Z,87.02
2022-08-16T01:08:53.864Z,86.51
2022-08-16T01:09:53.843Z,87.73
2022-08-16T01:10:53.828Z,87.12
2022-08-16T01:11:55.359Z,86.61
2022-08-16T01:12:53.816Z,86.61
2022-08-16T01:13:53.802Z,87.43
2022-08-16T01:14:53.784Z,87.93
2022-08-16T01:15:53.815Z,88.03
2022-08-16T01:16:53.790Z,87.83
2022-08-16T01:17:55.759Z,87.69
2022-08-16T01:18:53.752Z,87.83
2022-08-16T01:19:57.117Z,87.28
2022-08-16T01:20:53.739Z,87.28
2022-08-16T01:21:53.716Z,87.18
2022-08-16T01:22:53.760Z,88.29
2022-08-16T01:24:00.871Z,87.99
2022-08-16T01:24:55.669Z,84.85
2022-08-16T01:26:00.407Z,86.68
2022-08-16T01:26:54.705Z,87.18
2022-08-16T01:27:53.657Z,86.53
2022-08-16T01:28:53.644Z,87.69
2022-08-16T01:29:57.931Z,86.47
2022-08-16T01:30:54.632Z,86.47
2022-08-16T01:31:53.626Z,86.16
2022-08-16T01:33:02.173Z,86.57
2022-08-16T01:33:55.582Z,86.98
2022-08-16T01:34:53.842Z,87.48
2022-08-16T01:35:53.591Z,87.99
2022-08-16T01:36:56.891Z,87.14
2022-08-16T01:37:54.238Z,87.99
2022-08-16T01:38:57.413Z,88.60
2022-08-16T01:39:53.558Z,87.95
2022-08-16T01:40:53.544Z,87.95
2022-08-16T01:41:53.506Z,88.25
2022-08-16T01:42:53.924Z,86.94
2022-08-16T01:43:54.474Z,84.95
2022-08-16T01:44:53.502Z,83.77
2022-08-16T01:45:57.497Z,84.63
2022-08-16T01:46:53.448Z,86.29
2022-08-16T01:47:53.475Z,87.69
2022-08-16T01:48:53.451Z,89.72
2022-08-16T01:50:43.556Z,90.37
2022-08-16T01:51:09.751Z,90.84
2022-08-16T01:51:54.425Z,90.53
2022-08-16T01:52:53.453Z,89.88
2022-08-16T01:53:54.585Z,89.98
2022-08-16T01:54:53.542Z,88.93
2022-08-16T01:55:53.872Z,88.76
2022-08-16T01:56:53.395Z,87.51
2022-08-16T01:57:56.470Z,88.01
2022-08-16T01:58:53.355Z,88.52
2022-08-16T01:59:54.792Z,88.93
2022-08-16T02:00:53.327Z,88.62
2022-08-16T02:01:59.884Z,88.42
2022-08-16T02:02:54.330Z,87.92
2022-08-16T02:03:53.295Z,87.87
2022-08-16T02:04:54.730Z,88.38
2022-08-16T02:05:53.267Z,86.59
2022-08-16T02:06:53.297Z,87.00
2022-08-16T02:07:53.486Z,87.87
2022-08-16T02:08:53.268Z,86.55
2022-08-16T02:09:57.191Z,86.65
2022-08-16T02:10:54.221Z,86.59
2022-08-16T02:11:53.691Z,87.16
2022-08-16T02:12:59.839Z,87.16
2022-08-16T02:13:54.859Z,87.37
2022-08-16T02:14:53.222Z,87.26
2022-08-16T02:15:53.193Z,87.93
2022-08-16T02:16:53.164Z,88.13
2022-08-16T02:17:53.187Z,87.93
2022-08-16T02:18:53.156Z,87.43
2022-08-16T02:19:58.997Z,87.57
2022-08-16T02:20:54.139Z,87.12
2022-08-16T02:22:08.416Z,88.03
2022-08-16T02:22:55.283Z,88.03
2022-08-16T02:23:55.648Z,87.97
2022-08-16T02:24:53.099Z,87.97
2022-08-16T02:25:54.667Z,87.93
2022-08-16T02:26:54.060Z,87.73
2022-08-16T02:27:53.054Z,88.64
2022-08-16T02:28:53.040Z,90.06
2022-08-16T02:29:53.057Z,90.11
2022-08-16T02:30:54.052Z,90.41
2022-08-16T02:32:03.212Z,89.76
2022-08-16T02:32:54.032Z,88.99
2022-08-16T02:33:52.986Z,90.00
2022-08-16T02:34:56.425Z,91.22
2022-08-16T02:35:58.150Z,89.80
2022-08-16T02:36:53.964Z,87.51
2022-08-16T02:37:53.450Z,87.77
2022-08-16T02:38:52.974Z,87.26
2022-08-16T02:39:54.047Z,86.86
2022-08-16T02:40:54.399Z,88.18
2022-08-16T02:41:53.205Z,87.26
2022-08-16T02:42:53.098Z,87.20
2022-08-16T02:43:52.892Z,87.10
2022-08-16T02:44:52.881Z,87.92
2022-08-16T02:45:52.879Z,87.40
2022-08-16T02:46:53.887Z,87.20
2022-08-16T02:48:00.468Z,86.69
2022-08-16T02:48:53.843Z,89.03
2022-08-16T02:49:59.312Z,88.93
2022-08-16T02:51:06.708Z,87.92
2022-08-16T02:51:53.833Z,87.71
2022-08-16T02:52:52.802Z,88.42
2022-08-16T02:53:52.876Z,88.52
2022-08-16T02:54:55.435Z,89.74
2022-08-16T02:55:52.773Z,88.93
2022-08-16T02:56:52.769Z,88.12
2022-08-16T02:57:53.886Z,88.21
2022-08-16T02:58:52.750Z,88.32
2022-08-16T02:59:52.728Z,87.81
2022-08-16T03:00:52.775Z,87.51
2022-08-16T03:01:52.730Z,87.81
2022-08-16T03:02:55.753Z,86.69
2022-08-16T03:04:29.278Z,88.12
2022-08-16T03:04:54.130Z,88.12
2022-08-16T03:05:53.222Z,87.34
2022-08-16T03:06:56.622Z,88.16
2022-08-16T03:07:52.653Z,88.36
2022-08-16T03:08:53.400Z,88.36
2022-08-16T03:09:52.642Z,87.95
2022-08-16T03:10:52.638Z,88.10
2022-08-16T03:11:52.661Z,86.27
2022-08-16T03:12:55.493Z,86.21
2022-08-16T03:13:53.029Z,87.92
2022-08-16T03:14:52.576Z,88.12
2022-08-16T03:15:52.581Z,90.46
2022-08-16T03:16:59.392Z,91.48
2022-08-16T03:17:54.249Z,91.07
2022-08-16T03:18:52.568Z,89.95
2022-08-16T03:20:00.082Z,89.81
2022-08-16T03:20:55.658Z,88.89
2022-08-16T03:21:52.526Z,89.61
2022-08-16T03:22:52.501Z,88.59
2022-08-16T03:23:52.502Z,90.11
2022-08-16T03:24:52.494Z,91.23
2022-08-16T03:25:52.512Z,91.29
2022-08-16T03:26:52.469Z,89.97
2022-08-16T03:27:52.463Z,89.76
2022-08-16T03:28:52.473Z,90.37
2022-08-16T03:29:54.302Z,88.34
2022-08-16T03:30:52.444Z,88.85
2022-08-16T03:31:52.552Z,89.09
2022-08-16T03:32:52.483Z,88.85
2022-08-16T03:33:52.403Z,88.65
2022-08-16T03:34:52.372Z,88.85
2022-08-16T03:35:56.963Z,88.04
2022-08-16T03:36:53.347Z,87.93
2022-08-16T03:38:02.620Z,87.73
2022-08-16T03:38:53.392Z,87.73
2022-08-16T03:39:56.660Z,87.73
2022-08-16T03:40:53.330Z,87.93
2022-08-16T03:41:59.937Z,87.57
2022-08-16T03:43:00.396Z,88.08
2022-08-16T03:43:53.305Z,89.34
2022-08-16T03:45:03.511Z,89.00
2022-08-16T03:45:53.570Z,89.61
2022-08-16T03:46:52.281Z,89.56
2022-08-16T03:47:58.523Z,90.27
2022-08-16T03:48:53.264Z,91.09
2022-08-16T03:49:52.485Z,90.68
2022-08-16T03:51:00.109Z,89.97
2022-08-16T03:51:53.208Z,89.97
2022-08-16T03:52:53.869Z,89.36
2022-08-16T03:54:00.676Z,89.87
2022-08-16T03:54:59.162Z,89.87
2022-08-16T03:55:53.183Z,89.66
2022-08-16T03:56:57.926Z,89.76
2022-08-16T03:57:53.174Z,90.99
2022-08-16T03:58:52.645Z,89.87
2022-08-16T03:59:52.141Z,90.68
2022-08-16T04:00:56.926Z,90.68
2022-08-16T04:01:53.681Z,89.97
2022-08-16T04:02:52.100Z,88.65
2022-08-16T04:03:52.733Z,88.13
2022-08-16T04:04:52.112Z,88.13
2022-08-16T04:05:54.172Z,87.89
2022-08-16T04:06:52.076Z,88.50
2022-08-16T04:07:52.063Z,87.53
2022-08-16T04:08:52.055Z,87.84
2022-08-16T04:09:52.032Z,89.87
2022-08-16T04:10:52.025Z,89.05
2022-08-16T04:11:52.024Z,88.65
2022-08-16T04:12:54.314Z,88.85
2022-08-16T04:14:00.333Z,87.63
2022-08-16T04:14:52.989Z,88.34
2022-08-16T04:15:52.874Z,89.40
2022-08-16T04:16:51.963Z,88.69
2022-08-16T04:17:51.972Z,89.91
2022-08-16T04:18:51.963Z,88.95
2022-08-16T04:19:54.964Z,89.09
2022-08-16T04:20:52.947Z,89.91
2022-08-16T04:21:51.940Z,89.87
2022-08-16T04:22:51.927Z,89.09
2022-08-16T04:23:51.893Z,89.91
2022-08-16T04:24:55.290Z,89.44
2022-08-16T04:25:52.917Z,89.03
2022-08-16T04:26:51.845Z,88.42
2022-08-16T04:27:55.624Z,89.81
2022-08-16T04:29:14.624Z,89.00
2022-08-16T04:29:52.853Z,88.79
2022-08-16T04:30:51.824Z,90.62
2022-08-16T04:31:55.579Z,90.83
2022-08-16T04:32:52.804Z,91.43
2022-08-16T04:33:51.793Z,91.53
2022-08-16T04:34:51.800Z,91.13
2022-08-16T04:35:51.798Z,90.42
2022-08-16T04:36:51.763Z,90.01
2022-08-16T04:37:53.876Z,89.61
2022-08-16T04:38:52.413Z,89.97
2022-08-16T04:39:55.582Z,89.76
2022-08-16T04:40:51.731Z,88.75
2022-08-16T04:41:56.898Z,90.01
2022-08-16T04:42:52.836Z,91.69
2022-08-16T04:43:51.723Z,90.48
2022-08-16T04:44:54.448Z,90.58
2022-08-16T04:46:00.361Z,90.58
2022-08-16T04:47:03.122Z,90.33
2022-08-16T04:47:56.163Z,91.45
2022-08-16T04:48:51.673Z,91.14
2022-08-16T04:49:52.282Z,90.07
2022-08-16T04:50:51.623Z,89.87
2022-08-16T04:51:53.697Z,90.58
2022-08-16T04:52:51.626Z,90.58
2022-08-16T04:53:51.944Z,90.83
2022-08-16T04:54:51.598Z,90.48
2022-08-16T04:55:53.489Z,90.58
2022-08-16T04:56:51.565Z,91.19
2022-08-16T04:57:53.249Z,90.78
2022-08-16T04:58:51.558Z,90.17
2022-08-16T04:59:54.312Z,90.07
2022-08-16T05:00:51.524Z,90.17
2022-08-16T05:01:58.087Z,90.99
2022-08-16T05:02:55.654Z,91.49
2022-08-16T05:04:00.752Z,91.39
2022-08-16T05:04:52.510Z,90.88
2022-08-16T05:05:59.007Z,90.84
2022-08-16T05:06:52.472Z,90.94
2022-08-16T05:07:58.511Z,90.23
2022-08-16T05:08:52.463Z,90.13
2022-08-16T05:09:51.455Z,92.16
2022-08-16T05:10:51.418Z,92.06
2022-08-16T05:11:51.415Z,91.41
2022-08-16T05:12:51.403Z,91.20
2022-08-16T05:13:51.780Z,91.20
2022-08-16T05:15:01.832Z,91.26
2022-08-16T05:15:52.390Z,90.66
2022-08-16T05:16:52.118Z,90.45
2022-08-16T05:17:58.424Z,90.51
2022-08-16T05:18:52.356Z,90.00
2022-08-16T05:19:57.314Z,89.70
2022-08-16T05:20:54.216Z,89.45
2022-08-16T05:21:52.297Z,89.65
2022-08-16T05:22:51.300Z,89.65
2022-08-16T05:23:55.414Z,89.72
2022-08-16T05:24:54.923Z,89.51
2022-08-16T05:25:51.316Z,89.51
2022-08-16T05:26:51.772Z,89.37
2022-08-16T05:27:51.254Z,89.57
2022-08-16T05:28:55.483Z,89.67
2022-08-16T05:29:57.642Z,89.87
2022-08-16T05:30:52.236Z,89.67
2022-08-16T05:31:53.220Z,89.57
2022-08-16T05:32:51.493Z,88.92
2022-08-16T05:33:53.589Z,89.43
2022-08-16T05:34:51.191Z,89.53
2022-08-16T05:35:54.617Z,89.32
2022-08-16T05:36:51.531Z,89.59
2022-08-16T05:37:51.177Z,89.79
2022-08-16T05:38:51.163Z,89.89
2022-08-16T05:39:51.176Z,90.09
2022-08-16T05:40:57.234Z,89.54
2022-08-16T05:41:52.215Z,88.84
2022-08-16T05:42:51.351Z,89.34
2022-08-16T05:43:51.099Z,89.45
2022-08-16T05:44:52.106Z,89.10
2022-08-16T05:45:51.064Z,89.50
2022-08-16T05:46:51.062Z,89.70
2022-08-16T05:48:00.374Z,89.30
2022-08-16T05:48:54.972Z,89.20
2022-08-16T05:49:52.059Z,89.40
2022-08-16T05:50:52.985Z,89.36
2022-08-16T05:51:51.016Z,89.36
2022-08-16T05:52:51.009Z,88.55
2022-08-16T05:53:51.021Z,88.35
2022-08-16T05:55:01.634Z,88.21
2022-08-16T05:55:51.968Z,88.01
2022-08-16T05:56:50.952Z,87.60
2022-08-16T05:57:52.641Z,87.86
2022-08-16T05:58:50.994Z,86.75
2022-08-16T05:59:59.851Z,87.86
2022-08-16T06:00:51.978Z,86.75
2022-08-16T06:01:50.974Z,87.01
2022-08-16T06:02:50.947Z,86.07
2022-08-16T06:03:50.922Z,85.31
2022-08-16T06:04:50.908Z,85.82
2022-08-16T06:05:50.894Z,85.02
2022-08-16T06:06:56.498Z,84.77
2022-08-16T06:07:58.208Z,85.02
2022-08-16T06:08:51.832Z,84.77
2022-08-16T06:09:50.843Z,84.07
2022-08-16T06:11:07.693Z,84.27
2022-08-16T06:11:51.830Z,84.13
2022-08-16T06:12:53.815Z,83.62
2022-08-16T06:13:52.803Z,83.62
2022-08-16T06:14:51.390Z,84.13
2022-08-16T06:15:50.816Z,84.03
2022-08-16T06:16:51.167Z,84.23
2022-08-16T06:17:51.804Z,84.94
2022-08-16T06:18:50.749Z,83.72
2022-08-16T06:19:51.231Z,83.59
2022-08-16T06:20:55.229Z,83.79
2022-08-16T06:21:54.804Z,83.28
2022-08-16T06:23:02.816Z,82.94
2022-08-16T06:23:54.383Z,83.04
2022-08-16T06:24:53.902Z,82.34
2022-08-16T06:25:52.226Z,82.60
2022-08-16T06:26:57.866Z,81.59
2022-08-16T06:27:57.490Z,82.26
2022-08-16T06:28:52.511Z,80.91
2022-08-16T06:29:50.660Z,81.65
2022-08-16T06:30:50.659Z,81.05
2022-08-16T06:31:50.638Z,81.12
2022-08-16T06:32:50.865Z,81.21
2022-08-16T06:33:51.790Z,80.81
2022-08-16T06:34:55.803Z,80.57
2022-08-16T06:35:55.264Z,79.33
2022-08-16T06:36:51.574Z,80.04
2022-08-16T06:37:52.439Z,79.39
2022-08-16T06:38:56.084Z,78.66
2022-08-16T06:39:51.597Z,78.31
2022-08-16T06:40:50.570Z,78.42
2022-08-16T06:41:50.536Z,76.91
2022-08-16T06:42:55.294Z,76.67
2022-08-16T06:43:52.504Z,76.04
2022-08-16T06:44:50.500Z,75.93
2022-08-16T06:45:50.519Z,75.34
2022-08-16T06:46:50.883Z,75.60
2022-08-16T06:47:54.360Z,75.10
2022-08-16T06:48:51.638Z,74.66
2022-08-16T06:49:53.910Z,74.33
2022-08-16T06:50:50.457Z,73.72
2022-08-16T06:51:50.428Z,73.49
2022-08-16T06:52:57.766Z,73.69
2022-08-16T06:53:52.808Z,72.96
2022-08-16T06:54:50.407Z,71.26
2022-08-16T06:55:53.774Z,71.66
2022-08-16T06:56:52.420Z,72.06
2022-08-16T06:57:50.378Z,72.32
2022-08-16T06:58:50.395Z,71.83
2022-08-16T06:59:58.210Z,70.89
2022-08-16T07:00:51.435Z,70.46
2022-08-16T07:01:54.028Z,70.53
2022-08-16T07:02:51.310Z,68.06
2022-08-16T07:03:55.938Z,68.76
2022-08-16T07:04:52.761Z,69.16
2022-08-16T07:05:50.314Z,68.56
2022-08-16T07:06:50.264Z,68.56
2022-08-16T07:07:51.094Z,68.76
2022-08-16T07:08:50.260Z,68.13
2022-08-16T07:09:51.263Z,68.53
2022-08-16T07:10:50.247Z,69.16
2022-08-16T07:11:52.331Z,69.62
2022-08-16T07:13:04.458Z,68.07
2022-08-16T07:14:00.661Z,67.77
2022-08-16T07:14:52.167Z,67.13
2022-08-16T07:15:51.143Z,66.38
2022-08-16T07:16:50.194Z,64.32
2022-08-16T07:17:50.191Z,63.27
2022-08-16T07:18:58.151Z,62.29
2022-08-16T07:20:03.012Z,61.56
2022-08-16T07:20:51.189Z,59.52
2022-08-16T07:21:59.513Z,59.49
2022-08-16T07:22:53.090Z,58.77
2022-08-16T07:23:51.117Z,58.34
2022-08-16T07:24:51.114Z,57.33
2022-08-16T07:25:50.110Z,55.52
2022-08-16T07:26:50.075Z,56.02
2022-08-16T07:27:50.055Z,55.30
2022-08-16T07:28:50.043Z,54.71
2022-08-16T07:29:50.054Z,55.03
2022-08-16T07:30:51.064Z,56.51
2022-08-16T07:31:50.035Z,55.69
2022-08-16T07:32:51.746Z,54.34
2022-08-16T07:33:53.376Z,55.69
2022-08-16T07:34:49.999Z,54.90
2022-08-16T07:35:50.085Z,55.10
2022-08-16T07:36:58.111Z,54.68
2022-08-16T07:37:50.981Z,55.05
2022-08-16T07:38:50.149Z,53.99
2022-08-16T07:39:49.967Z,55.45
2022-08-16T07:40:59.716Z,56.79
2022-08-16T07:41:51.929Z,57.35
2022-08-16T07:42:50.189Z,55.70
2022-08-16T07:43:49.895Z,55.97
2022-08-16T07:44:50.726Z,55.45
2022-08-16T07:45:53.125Z,56.00
2022-08-16T07:46:55.614Z,56.79
2022-08-16T07:47:51.219Z,57.09
2022-08-16T07:48:49.869Z,56.37
2022-08-16T07:49:57.750Z,55.75
2022-08-16T07:50:57.384Z,57.46
2022-08-16T07:51:55.908Z,56.10
2022-08-16T07:52:50.996Z,57.71
2022-08-16T07:54:02.175Z,58.83
2022-08-16T07:54:53.276Z,59.15
2022-08-16T07:55:49.783Z,58.75
2022-08-16T07:56:49.793Z,58.88
2022-08-16T07:58:00.706Z,59.51
2022-08-16T07:58:55.437Z,60.30
2022-08-16T07:59:50.754Z,61.26
2022-08-16T08:00:49.799Z,59.12
2022-08-16T08:01:49.759Z,59.19
2022-08-16T08:02:52.174Z,56.99
2022-08-16T08:03:49.699Z,57.82
2022-08-16T08:04:49.735Z,56.31
2022-08-16T08:05:49.698Z,57.73
2022-08-16T08:06:50.915Z,57.40
2022-08-16T08:07:49.664Z,55.82
2022-08-16T08:08:52.590Z,55.49
2022-08-16T08:09:50.654Z,56.16
2022-08-16T08:10:49.645Z,55.47
2022-08-16T08:12:01.189Z,55.03
2022-08-16T08:12:51.076Z,56.61
2022-08-16T08:13:50.710Z,56.02
2022-08-16T08:14:49.656Z,57.70
2022-08-16T08:15:52.427Z,56.71
2022-08-16T08:16:49.590Z,55.52
2022-08-16T08:17:49.591Z,55.15
2022-08-16T08:18:50.198Z,56.74
2022-08-16T08:19:53.167Z,57.20
2022-08-16T08:20:58.913Z,56.58
2022-08-16T08:22:01.327Z,55.07
2022-08-16T08:22:50.540Z,55.57
2022-08-16T08:23:49.545Z,54.26
2022-08-16T08:24:49.514Z,53.74
2022-08-16T08:25:53.604Z,53.54
2022-08-16T08:26:50.716Z,53.59
2022-08-16T08:27:49.483Z,53.19
2022-08-16T08:28:50.500Z,52.58
2022-08-16T08:30:49.016Z,50.61
2022-08-16T08:31:02.465Z,53.59
2022-08-16T08:31:51.360Z,52.61
2022-08-16T08:32:59.837Z,50.63
2022-08-16T08:33:51.376Z,51.62
2022-08-16T08:34:49.418Z,52.11
2022-08-16T08:35:49.412Z,51.62
2022-08-16T08:36:49.411Z,53.07
2022-08-16T08:37:55.579Z,51.50
2022-08-16T08:38:50.432Z,52.16
2022-08-16T08:39:54.804Z,52.16
2022-08-16T08:40:50.338Z,51.97
2022-08-16T08:41:50.417Z,52.23
2022-08-16T08:42:49.721Z,51.64
2022-08-16T08:43:50.480Z,51.05
2022-08-16T08:44:49.304Z,50.63
2022-08-16T08:45:52.756Z,50.14
2022-08-16T08:47:00.648Z,49.53
2022-08-16T08:47:54.241Z,48.35
2022-08-16T08:48:59.529Z,49.43
2022-08-16T08:49:55.492Z,49.04
2022-08-16T08:50:50.398Z,50.51
2022-08-16T08:51:49.278Z,49.63
2022-08-16T08:52:49.427Z,48.52
2022-08-16T08:53:58.032Z,49.68
2022-08-16T08:54:50.571Z,47.03
2022-08-16T08:55:49.224Z,48.74
2022-08-16T08:56:50.239Z,49.70
2022-08-16T08:57:49.215Z,50.42
2022-08-16T08:58:53.906Z,48.66
2022-08-16T08:59:50.199Z,48.71
2022-08-16T09:00:51.444Z,50.41
2022-08-16T09:01:58.148Z,50.43
2022-08-16T09:02:52.277Z,53.59
2022-08-16T09:03:49.315Z,50.43
2022-08-16T09:04:49.152Z,50.46
2022-08-16T09:05:51.512Z,50.76
2022-08-16T09:06:50.148Z,52.63
2022-08-16T09:08:01.493Z,52.11
2022-08-16T09:08:50.101Z,49.30
2022-08-16T09:09:49.105Z,49.16
2022-08-16T09:10:59.174Z,49.62
2022-08-16T09:12:03.995Z,48.74
2022-08-16T09:12:51.344Z,48.54
2022-08-16T09:13:49.057Z,48.83
2022-08-16T09:14:50.899Z,49.13
2022-08-16T09:15:49.060Z,49.92
2022-08-16T09:17:03.893Z,47.51
2022-08-16T09:17:52.231Z,47.92
2022-08-16T09:18:54.875Z,48.20
2022-08-16T09:19:55.103Z,48.59
2022-08-16T09:20:59.625Z,47.44
2022-08-16T09:21:55.994Z,48.64
2022-08-16T09:22:51.349Z,48.37
2022-08-16T09:23:48.965Z,49.38
2022-08-16T09:24:53.340Z,50.88
2022-08-16T09:25:48.938Z,52.04
2022-08-16T09:26:49.100Z,49.06
2022-08-16T09:27:57.922Z,47.97
2022-08-16T09:29:14.475Z,48.69
2022-08-16T09:30:00.082Z,49.35
2022-08-16T09:30:49.899Z,50.83
2022-08-16T09:31:53.625Z,49.13
2022-08-16T09:32:49.013Z,48.61
2022-08-16T09:33:52.052Z,47.73
2022-08-16T09:34:48.858Z,47.85
2022-08-16T09:35:53.216Z,48.39
2022-08-16T09:36:48.855Z,48.93
2022-08-16T09:38:01.118Z,49.65
2022-08-16T09:38:49.832Z,48.58
2022-08-16T09:39:50.430Z,50.81
2022-08-16T09:40:49.842Z,51.50
2022-08-16T09:41:53.339Z,51.77
2022-08-16T09:42:56.078Z,52.63
2022-08-16T09:43:59.943Z,50.46
2022-08-16T09:45:12.490Z,52.58
2022-08-16T09:45:49.777Z,49.69
2022-08-16T09:46:49.975Z,49.90
2022-08-16T09:47:56.986Z,50.38
2022-08-16T09:48:51.016Z,48.71
2022-08-16T09:49:50.985Z,48.98
2022-08-16T09:50:48.714Z,50.19
2022-08-16T09:51:49.637Z,51.89
2022-08-16T09:52:48.928Z,54.71
2022-08-16T09:53:53.771Z,52.28
2022-08-16T09:54:49.670Z,50.63
2022-08-16T09:55:49.091Z,48.13
2022-08-16T09:56:52.300Z,47.44
2022-08-16T09:57:53.070Z,46.60
2022-08-16T09:59:05.689Z,46.60
2022-08-16T09:59:56.166Z,46.37
2022-08-16T10:00:49.650Z,48.12
2022-08-16T10:01:48.631Z,49.65
2022-08-16T10:02:48.649Z,50.48
2022-08-16T10:04:02.386Z,51.79
2022-08-16T10:04:54.596Z,51.77
2022-08-16T10:05:49.605Z,52.54
2022-08-16T10:06:48.698Z,52.73
2022-08-16T10:07:48.622Z,52.48
2022-08-16T10:08:55.411Z,50.68
2022-08-16T10:09:55.115Z,49.10
2022-08-16T10:10:49.532Z,48.98
2022-08-16T10:11:49.940Z,49.05
2022-08-16T10:12:55.576Z,50.61
2022-08-16T10:13:49.504Z,48.96
2022-08-16T10:14:48.510Z,48.78
2022-08-16T10:15:55.636Z,50.59
2022-08-16T10:16:49.458Z,51.87
2022-08-16T10:18:00.331Z,50.43
2022-08-16T10:19:00.462Z,50.83
2022-08-16T10:19:50.376Z,49.40
2022-08-16T10:20:48.426Z,50.73
2022-08-16T10:21:56.340Z,47.63
2022-08-16T10:22:54.156Z,47.53
2022-08-16T10:23:49.392Z,47.51
2022-08-16T10:24:56.020Z,48.52
2022-08-16T10:27:16.244Z,45.98
2022-08-16T10:27:17.214Z,48.30
2022-08-16T10:27:53.259Z,44.48
2022-08-16T10:28:50.509Z,46.42
2022-08-16T10:30:00.228Z,42.68
2022-08-16T10:30:56.320Z,42.33
2022-08-16T10:31:53.266Z,44.06
2022-08-16T10:32:48.333Z,44.65
2022-08-16T10:33:48.327Z,44.37
2022-08-16T10:34:48.312Z,44.01
2022-08-16T10:35:48.294Z,44.53
2022-08-16T10:36:48.289Z,42.71
2022-08-16T10:37:49.458Z,44.69
2022-08-16T10:38:48.263Z,45.81
2022-08-16T10:39:48.261Z,46.11
2022-08-16T10:40:48.251Z,46.78
2022-08-16T10:41:48.298Z,44.87
2022-08-16T10:42:48.395Z,45.90
2022-08-16T10:43:48.209Z,44.19
2022-08-16T10:44:53.969Z,43.05
2022-08-16T10:46:00.555Z,41.35
2022-08-16T10:46:49.187Z,40.92
2022-08-16T10:47:48.296Z,40.23
2022-08-16T10:48:49.160Z,39.94
2022-08-16T10:49:48.183Z,39.84
2022-08-16T10:50:48.166Z,40.06
2022-08-16T10:52:02.503Z,41.62
2022-08-16T10:52:50.239Z,39.76
2022-08-16T10:53:48.116Z,41.70
2022-08-16T10:55:57.432Z,39.02
2022-08-16T10:56:52.290Z,38.75
2022-08-16T10:57:49.262Z,40.01
2022-08-16T10:58:48.061Z,37.89
2022-08-16T10:59:56.103Z,40.27
2022-08-16T11:00:53.176Z,38.98
2022-08-16T11:02:58.780Z,38.89
2022-08-16T11:03:54.034Z,39.75
2022-08-16T11:05:05.970Z,39.59
2022-08-16T11:06:06.411Z,41.58
2022-08-16T11:07:52.300Z,40.39
2022-08-16T11:08:48.053Z,41.11
2022-08-16T11:09:47.989Z,40.53
2022-08-16T11:11:07.025Z,42.33
2022-08-16T11:12:52.795Z,41.64
2022-08-16T11:14:11.038Z,42.08
2022-08-16T11:15:19.679Z,43.35
2022-08-16T11:15:55.811Z,43.99
2022-08-16T11:17:10.461Z,41.42
2022-08-16T11:18:47.863Z,42.62
2022-08-16T11:19:06.409Z,39.96
2022-08-16T11:20:50.563Z,40.88
2022-08-16T11:22:49.892Z,43.27
2022-08-16T11:23:58.274Z,41.33
2022-08-16T11:25:11.779Z,42.11
2022-08-16T11:26:20.615Z,42.98
2022-08-16T11:27:18.479Z,40.29
2022-08-16T11:27:50.149Z,40.29
2022-08-16T11:29:49.828Z,39.64
2022-08-16T11:30:50.676Z,39.66
2022-08-16T11:31:54.243Z,39.74
2022-08-16T11:32:48.976Z,38.57
2022-08-16T11:33:55.479Z,39.82
2022-08-16T11:35:14.082Z,38.61
2022-08-16T11:36:59.309Z,38.53
2022-08-16T11:38:57.299Z,39.84
2022-08-16T11:39:48.782Z,38.71
2022-08-16T11:40:52.684Z,37.55
2022-08-16T11:41:49.355Z,38.76
2022-08-16T11:42:48.758Z,38.68
2022-08-16T11:43:47.688Z,39.49
2022-08-16T11:44:56.144Z,39.94
2022-08-16T11:45:53.629Z,38.82
2022-08-16T11:46:48.683Z,38.92
2022-08-16T11:47:47.896Z,39.14
2022-08-16T11:48:47.650Z,39.15
2022-08-16T11:49:47.633Z,38.84
2022-08-16T11:50:47.613Z,41.17
2022-08-16T11:51:47.616Z,40.90
2022-08-16T11:52:47.622Z,37.30
2022-08-16T11:53:47.679Z,38.45
2022-08-16T11:54:47.592Z,36.84
2022-08-16T11:55:50.469Z,36.71
2022-08-16T11:56:52.476Z,36.07
2022-08-16T11:57:48.787Z,34.09
2022-08-16T11:58:51.654Z,35.08
2022-08-16T11:59:48.537Z,33.80
2022-08-16T12:00:51.244Z,34.66
2022-08-16T12:01:59.266Z,34.14
2022-08-16T12:02:48.557Z,32.09
2022-08-16T12:03:47.530Z,31.71
2022-08-16T12:04:51.600Z,31.95
2022-08-16T12:05:51.908Z,33.77
2022-08-16T12:06:47.472Z,34.91
2022-08-16T12:07:47.611Z,36.34
2022-08-16T12:08:47.493Z,36.94
2022-08-16T12:09:47.434Z,38.63
2022-08-16T12:10:47.464Z,38.59
2022-08-16T12:11:47.497Z,36.82
2022-08-16T12:12:48.451Z,37.11
2022-08-16T12:13:47.438Z,37.62
2022-08-16T12:14:47.420Z,37.43
2022-08-16T12:15:47.599Z,38.49
2022-08-16T12:16:48.792Z,37.54
2022-08-16T12:17:48.513Z,39.29
2022-08-16T12:19:47.388Z,37.13
2022-08-16T12:20:47.334Z,37.77
2022-08-16T12:21:58.143Z,34.45
2022-08-16T12:22:48.480Z,34.88
2022-08-16T12:23:47.360Z,36.33
2022-08-16T12:24:47.916Z,36.14
2022-08-16T12:25:48.347Z,38.38
2022-08-16T12:26:47.334Z,34.45
2022-08-16T12:27:47.345Z,34.64
2022-08-16T12:28:55.183Z,34.42
2022-08-16T12:29:48.323Z,34.69
2022-08-16T12:30:47.287Z,33.69
2022-08-16T12:32:00.749Z,31.02
2022-08-16T12:32:53.275Z,31.68
2022-08-16T12:33:48.266Z,31.65
2022-08-16T12:34:47.970Z,30.07
2022-08-16T12:35:48.221Z,29.69
2022-08-16T12:36:47.248Z,28.80
2022-08-16T12:37:47.398Z,29.57
2022-08-16T12:38:48.181Z,28.50
2022-08-16T12:39:51.154Z,28.70
2022-08-16T12:40:47.220Z,32.02
2022-08-16T12:41:47.233Z,31.91
2022-08-16T12:42:49.117Z,29.60
2022-08-16T12:43:48.201Z,30.78
2022-08-16T12:44:47.183Z,32.52
2022-08-16T12:45:47.291Z,32.17
2022-08-16T12:46:47.612Z,32.15
2022-08-16T12:47:47.150Z,31.74
2022-08-16T12:48:47.149Z,32.29
2022-08-16T12:49:47.116Z,33.69
2022-08-16T12:50:50.219Z,34.39
2022-08-16T12:51:59.260Z,34.39
2022-08-16T12:52:52.298Z,33.15
2022-08-16T12:53:47.070Z,34.78
2022-08-16T12:54:54.999Z,34.52
2022-08-16T12:55:48.025Z,36.10
2022-08-16T12:56:47.137Z,34.23
2022-08-16T12:57:47.046Z,35.95
2022-08-16T12:58:50.263Z,34.44
2022-08-16T12:59:47.045Z,33.93
2022-08-16T13:00:47.064Z,34.21
2022-08-16T13:01:46.988Z,34.31